Terminal Aerodrome Forecast
Issued by NWS

Home | Current Version | Previous Version | Graphics & Text | Print | Product List | Glossary On
Versions: 1 2 3 4 5 6 7 8 9 10 11 12 13 14 15 16 17 18 19 20 21 22 23 24 25 26 27 28 29 30 31 32 33
000
FTUS43 KLOT 132300
TAFGYY
TAF
KGYY 132337Z 1400/1424 09010KT 2SM BR VCSH BKN003 OVC030
     FM140230 18012G20KT P6SM -RA OVC030
      TEMPO 1403/1407 2SM SHRA
     FM141100 35020G30KT P6SM VCSH OVC009
     FM141500 35025G35KT P6SM OVC015
     FM142100 36015G25KT 2SM -SN BR OVC020=

USA.gov is the U.S. government's official web portal to all federal, state and local government web resources and services.